FYGA4: White River At Fayetteville, AR

                                SHEF ID:       FYGA4     White River near Fayetteville, A
STATION TYPE: Stream Gauge

PRECIP STAGE RIV-FLOW WTR-TEMP DIS-OXY PH CONDUCT BAT-LOAD
in ft cfs F mg/l su umho/cm volt
Ccp-Rev Ccp-Rev Ccp-Rev Ccp-Rev Ccp-Rev Ccp-Rev Ccp-Rev Ccp-Rev
(America/Chicago)
10/31 00:00 ---- ---- ---- ---- ---- ---- ---- ----
10/31 01:00 ---- 2.64 175 55.76 7.93 7.82 165 12.65
10/31 02:00 0.00 2.63 172 55.63 7.92 7.81 166 12.57
10/31 03:00 0.00 2.63 172 55.53 7.96 7.80 166 12.57
10/31 04:00 0.00 2.62 170 55.38 7.95 7.80 166 12.57
10/31 05:00 0.00 2.62 170 55.26 7.95 7.80 166 12.57
10/31 06:00 0.00 2.61 167 55.13 7.94 7.80 166 12.57
10/31 07:00 0.00 2.61 167 55.02 7.97 7.79 167 12.49
10/31 08:00 0.00 2.60 164 54.90 8.02 7.80 167 12.49
10/31 09:00 0.00 2.59 162 54.86 8.08 7.80 165 12.49
10/31 10:00 0.00 2.58 159 55.06 8.25 7.82 166 13.44
10/31 11:00 0.00 2.57 156 55.78 8.40 7.83 167 13.53
10/31 12:00 0.00 2.57 156 56.77 8.47 7.85 167 14.56
10/31 13:00 0.00 2.56 154 57.81 8.49 7.87 167 14.00
10/31 14:00 0.00 2.55 151 58.66 8.41 7.87 167 13.84
10/31 15:00 0.00 2.55 151 59.14 8.33 7.88 167 13.84
10/31 16:00 0.00 2.55 151 59.23 8.29 7.90 167 13.68
10/31 17:00 0.00 2.54 149 59.27 8.13 7.90 167 13.05
10/31 18:00 0.00 2.53 146 59.14 7.95 7.89 168 13.05
10/31 19:00 0.00 2.53 146 58.95 7.68 7.88 168 12.81
10/31 20:00 0.00 2.52 144 58.46 7.66 7.86 168 12.81
10/31 21:00 0.00 2.53 146 57.99 7.66 7.84 168 12.73
10/31 22:00 0.00 2.52 144 57.81 7.64 7.83 167 12.73
10/31 23:00 0.00 2.51 141 57.67 7.61 7.84 169 12.65
Data processed at Sat 01Nov2025 04:10 GMT

NOTICE: If you are parsing this page

Please convert to using our Data API. Starting January 1st, 2026 we will be migrating to: https://water.usace.army.mil with modern pages rendered in JavaScript. You will no longer be able to scrape this page! CWMSDataAPI (CDA)

Timeseries IDs (TSIDs)

TSIDs used from left to right in the data table
FAYE.Precip-Inc.Total.1Hour.1Hour.Ccp-Rev
FAYE.Stage.Inst.1Hour.0.Ccp-Rev
FAYE.Flow.Inst.1Hour.0.Ccp-Rev
FAYE.Temp-Water.Inst.1Hour.0.Ccp-Rev
FAYE.Conc-DO.Inst.1Hour.0.Ccp-Rev
FAYE.pH.Inst.1Hour.0.Ccp-Rev
FAYE.Cond-Water.Inst.1Hour.0.Ccp-Rev
FAYE.Volt-Battery Load.Inst.1Hour.0.Ccp-Rev

                            

All information presented herein is the property of the government of the United States of America and may be revised or deleted at any time without prior notice. Dissemination of this information without the expressed written consent of the Public Affairs Office, Tulsa District U.S. Army Corps of Engineers is strictly prohibited. These data are gathered electronically and, as presented, have NOT undergone any form of quality control. These data are NOT guaranteed to be valid or correct.